Time;durP1;ratioP1;P1;durP2;ratioP2;P2;SDS_P1;SDS_P2;PMS_P1;PMS_P2;Temp;Humidity;BMP_temperature;BMP_pressure;BME280_temperature;BME280_humidity;BME280_pressure;Samples;Min_cycle;Max_cycle;Signal;HPM_P1;HPM_P2
2022/12/24 00:01:59;;;;;;;26.75;11.02;;;-0.60;99.90;;;;;;5014505;28;20045;-71
2022/12/24 00:04:25;;;;;;;29.23;9.70;;;-0.60;99.90;;;;;;5014019;28;20072;-71
2022/12/24 00:06:50;;;;;;;27.50;11.25;;;-0.50;99.90;;;;;;5014685;28;20495;-71
2022/12/24 00:09:16;;;;;;;26.00;10.43;;;-0.50;99.90;;;;;;5014478;28;20109;-72
2022/12/24 00:11:41;;;;;;;26.13;9.55;;;-0.50;99.90;;;;;;5012702;28;20021;-72
2022/12/24 00:14:07;;;;;;;30.17;9.30;;;-0.50;99.90;;;;;;5014572;28;20477;-72
2022/12/24 00:16:33;;;;;;;27.77;9.30;;;-0.50;99.90;;;;;;5014401;28;20025;-71
2022/12/24 00:18:58;;;;;;;32.80;12.93;;;-0.50;99.90;;;;;;5014093;28;20026;-72
2022/12/24 00:21:24;;;;;;;24.85;10.27;;;-0.40;99.90;;;;;;5014817;28;20029;-71
2022/12/24 00:23:49;;;;;;;27.95;10.40;;;-0.30;99.90;;;;;;5014227;28;20038;-72
2022/12/24 00:26:15;;;;;;;31.38;10.93;;;-0.30;99.90;;;;;;5013859;28;20084;-71
2022/12/24 00:28:40;;;;;;;40.42;11.27;;;-0.30;99.90;;;;;;5012841;28;20072;-71
2022/12/24 00:31:24;;;;;;;27.77;10.57;;;-0.20;99.90;;;;;;5012889;28;20025;-71
2022/12/24 00:33:52;;;;;;;;;;;-0.20;99.90;;;;;;5014981;28;20108;-71
2022/12/24 00:36:18;;;;;;;21.48;9.77;;;-0.10;99.90;;;;;;5014261;28;19956;-71
2022/12/24 00:38:44;;;;;;;23.83;9.73;;;-0.10;99.90;;;;;;5014031;28;20096;-72
2022/12/24 00:41:23;;;;;;;22.00;9.52;;;-0.10;99.90;;;;;;5013665;28;20033;-71
2022/12/24 00:43:53;;;;;;;28.60;10.20;;;-0.10;99.90;;;;;;5014564;28;20076;-71
2022/12/24 00:46:19;;;;;;;22.13;9.40;;;-0.10;99.90;;;;;;5014383;28;20056;-72
2022/12/24 00:48:44;;;;;;;24.63;9.77;;;-0.10;99.90;;;;;;5013696;28;20058;-73
2022/12/24 00:51:10;;;;;;;33.38;10.63;;;-0.10;99.90;;;;;;5013788;28;20022;-72
2022/12/24 00:53:36;;;;;;;23.02;11.35;;;0.00;99.90;;;;;;5013952;28;20045;-71
2022/12/24 00:56:01;;;;;;;31.83;10.80;;;0.00;99.90;;;;;;5013966;28;20053;-71
2022/12/24 00:58:27;;;;;;;25.58;10.90;;;0.00;99.90;;;;;;5013060;28;20029;-72
2022/12/24 01:00:52;;;;;;;21.20;10.73;;;0.00;99.90;;;;;;5013655;28;20474;-72
2022/12/24 01:03:18;;;;;;;23.77;10.57;;;0.00;99.90;;;;;;5014090;28;20392;-71
2022/12/24 01:05:43;;;;;;;27.65;11.95;;;0.10;99.90;;;;;;5014141;28;20105;-71
2022/12/24 01:08:09;;;;;;;33.53;13.10;;;0.10;99.90;;;;;;5012593;28;20022;-71
2022/12/24 01:10:34;;;;;;;25.23;11.25;;;0.10;99.90;;;;;;5013250;28;20018;-71
2022/12/24 01:13:01;;;;;;;29.25;11.40;;;0.20;99.90;;;;;;5014050;28;20064;-71
2022/12/24 01:15:27;;;;;;;33.90;11.60;;;0.30;99.90;;;;;;5014143;28;20037;-71
2022/12/24 01:17:53;;;;;;;31.85;11.48;;;0.30;99.90;;;;;;5013369;28;20389;-72
2022/12/24 01:20:18;;;;;;;30.02;10.63;;;0.30;99.90;;;;;;5013593;28;20507;-71
2022/12/24 01:22:44;;;;;;;28.92;13.02;;;0.40;99.90;;;;;;5013586;28;20029;-72
2022/12/24 01:25:10;;;;;;;31.67;13.25;;;0.50;99.90;;;;;;5013556;28;20030;-71
2022/12/24 01:27:35;;;;;;;24.95;11.52;;;0.50;99.90;;;;;;5013694;28;20034;-71
2022/12/24 01:30:01;;;;;;;31.35;11.32;;;0.50;99.90;;;;;;5013863;28;20488;-72
2022/12/24 01:32:27;;;;;;;28.20;11.88;;;0.60;99.90;;;;;;5012119;28;20077;-72
2022/12/24 01:34:52;;;;;;;29.30;11.48;;;0.60;99.90;;;;;;5014187;28;20113;-71
2022/12/24 01:37:18;;;;;;;30.77;10.93;;;0.70;99.90;;;;;;5013662;28;20034;-71
2022/12/24 01:39:43;;;;;;;25.15;11.55;;;0.70;99.90;;;;;;5013460;28;20048;-72
2022/12/24 01:45:40;;;;;;;29.13;12.13;;;0.90;99.90;;;;;;5017080;28;20500;-71
2022/12/24 01:48:20;;;;;;;26.08;11.35;;;1.00;99.90;;;;;;5017102;28;20257;-71
2022/12/24 01:50:46;;;;;;;30.50;12.35;;;1.00;99.90;;;;;;5016886;28;20030;-71
2022/12/24 01:53:14;;;;;;;27.42;10.43;;;1.00;99.90;;;;;;5016469;28;20021;-72
2022/12/24 01:55:40;;;;;;;25.65;10.45;;;1.10;99.90;;;;;;5016972;28;20397;-71
2022/12/24 01:58:08;;;;;;;25.73;10.73;;;1.10;99.90;;;;;;5016935;28;20053;-71
2022/12/24 02:00:34;;;;;;;35.08;12.30;;;1.10;99.90;;;;;;5016914;28;20026;-72
2022/12/24 02:02:59;;;;;;;24.20;11.98;;;1.10;99.90;;;;;;5016646;28;20029;-72
2022/12/24 02:05:30;;;;;;;26.52;11.65;;;1.20;99.90;;;;;;5016913;28;20469;-71
2022/12/24 02:07:56;;;;;;;30.10;12.05;;;1.20;99.90;;;;;;5016437;28;20026;-72
2022/12/24 02:10:22;;;;;;;32.60;11.52;;;1.20;99.90;;;;;;5016574;28;20034;-72
2022/12/24 02:12:48;;;;;;;47.78;13.45;;;1.20;99.90;;;;;;5016770;28;20026;-71
2022/12/24 02:15:17;;;;;;;28.27;11.30;;;1.30;99.90;;;;;;5017005;28;20033;-71
2022/12/24 02:17:58;;;;;;;30.98;12.52;;;1.20;99.90;;;;;;5016400;28;20029;-71
2022/12/24 02:20:30;;;;;;;21.95;11.43;;;1.30;99.90;;;;;;5016275;28;20040;-72
2022/12/24 02:22:56;;;;;;;23.60;12.93;;;1.30;99.90;;;;;;5015010;28;20076;-71
2022/12/24 02:25:37;;;;;;;32.58;11.73;;;1.30;99.90;;;;;;5016371;28;20093;-71
2022/12/24 02:28:15;;;;;;;22.77;11.95;;;1.30;99.90;;;;;;5016520;28;20079;-72
2022/12/24 02:30:45;;;;;;;20.73;10.95;;;1.30;99.90;;;;;;5016161;28;20375;-72
2022/12/24 02:33:23;;;;;;;26.30;11.30;;;1.30;99.90;;;;;;5016782;28;20022;-71
2022/12/24 02:36:16;;;;;;;21.63;11.05;;;1.30;99.90;;;;;;5015670;28;20037;-72
2022/12/24 02:38:47;;;;;;;25.90;11.18;;;1.30;99.90;;;;;;5016074;28;20524;-72
2022/12/24 02:42:04;;;;;;;24.45;11.95;;;1.30;99.90;;;;;;5016014;28;20075;-71
2022/12/24 02:44:22;;;;;;;29.20;11.55;;;1.40;99.90;;;;;;5015753;28;20034;-71
2022/12/24 02:46:49;;;;;;;23.98;11.57;;;1.30;99.90;;;;;;5015501;28;20018;-72
2022/12/24 02:49:14;;;;;;;25.17;11.48;;;1.30;99.90;;;;;;5015863;28;20083;-72
2022/12/24 02:51:40;;;;;;;25.98;11.80;;;1.30;99.90;;;;;;5015939;28;20076;-72
2022/12/24 02:54:06;;;;;;;36.78;13.63;;;1.30;99.90;;;;;;5014547;28;20464;-72
2022/12/24 02:56:58;;;;;;;33.17;12.73;;;1.30;99.90;;;;;;5015691;28;20040;-71
2022/12/24 02:59:56;;;;;;;28.02;12.23;;;1.40;99.90;;;;;;5015798;28;20057;-72
2022/12/24 03:02:48;;;;;;;38.42;13.23;;;1.30;99.90;;;;;;4995552;28;20048;-71
2022/12/24 03:05:45;;;;;;;32.70;13.23;;;1.30;99.90;;;;;;5015046;28;20030;-72
2022/12/24 03:08:29;;;;;;;26.77;12.25;;;1.30;99.90;;;;;;5015710;28;20083;-71
2022/12/24 03:11:01;;;;;;;29.85;13.23;;;1.30;99.90;;;;;;5015798;28;20072;-71
2022/12/24 03:13:27;;;;;;;29.20;12.55;;;1.30;99.90;;;;;;5015711;28;20017;-71
2022/12/24 03:15:53;;;;;;;30.48;12.38;;;1.30;99.90;;;;;;5014853;28;20502;-72
2022/12/24 03:18:23;;;;;;;28.00;12.27;;;1.30;99.90;;;;;;5015460;28;20072;-71
2022/12/24 03:21:11;;;;;;;26.90;12.32;;;1.30;99.90;;;;;;5015155;28;20448;-71
2022/12/24 03:23:39;;;;;;;35.58;12.90;;;1.30;99.90;;;;;;5004029;28;20030;-72
2022/12/24 03:26:09;;;;;;;18.58;10.68;;;1.30;99.90;;;;;;4994319;28;20126;-71
2022/12/24 03:28:39;;;;;;;31.10;12.82;;;1.20;99.90;;;;;;4995388;28;20084;-72
2022/12/24 03:31:07;;;;;;;27.23;13.48;;;1.20;99.90;;;;;;4995685;28;20053;-72
2022/12/24 03:33:33;;;;;;;33.58;14.15;;;1.20;99.90;;;;;;4995356;28;20113;-72
2022/12/24 03:35:58;;;;;;;46.90;15.05;;;1.30;99.90;;;;;;4995529;28;20108;-72
2022/12/24 03:38:23;;;;;;;30.15;13.55;;;1.20;99.90;;;;;;4995905;28;20045;-71
2022/12/24 03:40:49;;;;;;;26.25;12.88;;;1.20;99.90;;;;;;4996061;28;20046;-72
2022/12/24 03:43:14;;;;;;;29.20;13.57;;;1.30;99.90;;;;;;5008377;28;20025;-72
2022/12/24 03:45:40;;;;;;;29.77;12.93;;;1.30;99.90;;;;;;5014930;28;20030;-71
2022/12/24 03:48:06;;;;;;;40.45;14.93;;;1.30;99.90;;;;;;5014787;28;20026;-71
2022/12/24 03:50:31;;;;;;;30.67;13.32;;;1.30;99.90;;;;;;5014808;28;20026;-71
2022/12/24 03:52:57;;;;;;;33.85;12.70;;;1.30;99.90;;;;;;5015096;28;20033;-72
2022/12/24 03:55:23;;;;;;;23.65;11.60;;;1.30;99.90;;;;;;5013980;28;20072;-72
2022/12/24 03:57:49;;;;;;;28.52;12.32;;;1.30;99.90;;;;;;5014612;28;20026;-72
2022/12/24 04:00:15;;;;;;;31.50;11.93;;;1.40;99.90;;;;;;5014550;28;20060;-72
2022/12/24 04:02:40;;;;;;;31.13;11.98;;;1.30;99.90;;;;;;5014621;28;20040;-71
2022/12/24 04:05:07;;;;;;;27.17;12.65;;;1.40;99.90;;;;;;5013352;28;20489;-72
2022/12/24 04:07:33;;;;;;;23.17;11.27;;;1.40;99.90;;;;;;5014896;28;20037;-71
2022/12/24 04:09:58;;;;;;;25.30;11.95;;;1.40;99.90;;;;;;5013009;28;20026;-72
2022/12/24 04:12:24;;;;;;;27.88;13.48;;;1.40;99.90;;;;;;5014358;28;20036;-71
2022/12/24 04:14:50;;;;;;;22.13;10.45;;;1.40;99.90;;;;;;5014343;28;20069;-71
2022/12/24 04:17:16;;;;;;;26.10;11.25;;;1.40;99.90;;;;;;5014348;28;20507;-72
2022/12/24 04:19:41;;;;;;;24.02;11.40;;;1.40;99.90;;;;;;5014261;28;20520;-73
2022/12/24 04:22:07;;;;;;;26.50;11.20;;;1.40;99.90;;;;;;5014335;28;20061;-71
2022/12/24 04:24:33;;;;;;;22.48;11.40;;;1.40;99.90;;;;;;5013797;28;20106;-72
2022/12/24 04:26:58;;;;;;;24.80;10.95;;;1.40;99.90;;;;;;5014504;28;20057;-72
2022/12/24 04:29:24;;;;;;;25.25;10.60;;;1.40;99.90;;;;;;5014151;28;20022;-72
2022/12/24 04:31:49;;;;;;;25.75;11.20;;;1.40;99.90;;;;;;5014208;28;20026;-71
2022/12/24 04:34:15;;;;;;;29.08;11.60;;;1.40;99.90;;;;;;5013640;28;20030;-72
2022/12/24 04:36:40;;;;;;;20.80;10.40;;;1.40;99.90;;;;;;5014090;28;20109;-71
2022/12/24 04:39:06;;;;;;;18.92;10.02;;;1.40;99.90;;;;;;5014382;28;20025;-71
2022/12/24 04:41:31;;;;;;;17.45;9.23;;;1.50;99.90;;;;;;5014419;28;20026;-71
2022/12/24 04:43:57;;;;;;;20.23;9.35;;;1.50;99.90;;;;;;5013426;28;20022;-72
2022/12/24 04:46:25;;;;;;;23.88;8.98;;;1.50;99.90;;;;;;5014261;28;20033;-72
2022/12/24 04:48:53;;;;;;;22.15;9.13;;;1.50;99.90;;;;;;5013914;28;20089;-72
2022/12/24 04:51:19;;;;;;;20.65;8.77;;;1.50;99.90;;;;;;5014026;28;20083;-72
2022/12/24 04:53:47;;;;;;;21.80;10.02;;;1.50;99.90;;;;;;5012791;28;20026;-71
2022/12/24 04:56:19;;;;;;;26.55;10.00;;;1.60;99.90;;;;;;5013554;28;20064;-71
2022/12/24 04:58:45;;;;;;;18.95;8.55;;;1.60;99.90;;;;;;5013858;28;20022;-72
2022/12/24 05:01:20;;;;;;;26.38;9.70;;;1.60;99.90;;;;;;5013894;28;20040;-71
2022/12/24 05:03:47;;;;;;;19.58;8.32;;;1.60;99.90;;;;;;5013658;28;20480;-72
2022/12/24 05:06:15;;;;;;;18.23;9.68;;;1.60;99.90;;;;;;5014443;28;20413;-71
2022/12/24 05:08:42;;;;;;;23.98;9.32;;;1.60;99.90;;;;;;5013732;28;20026;-72
2022/12/24 05:11:08;;;;;;;24.30;9.43;;;1.60;99.90;;;;;;5013869;28;20018;-71
2022/12/24 05:13:34;;;;;;;20.40;9.10;;;1.60;99.90;;;;;;5014050;28;20038;-72
2022/12/24 05:15:59;;;;;;;19.38;8.43;;;1.60;99.90;;;;;;5014077;28;20390;-71
2022/12/24 05:18:25;;;;;;;20.23;9.35;;;1.60;99.90;;;;;;5016074;28;20040;-73
2022/12/24 05:20:50;;;;;;;17.55;8.43;;;1.60;99.90;;;;;;5017233;28;20038;-72
2022/12/24 05:26:21;;;;;;;20.42;9.00;;;1.60;99.90;;;;;;5017831;28;20048;-71
2022/12/24 05:28:51;;;;;;;20.00;9.77;;;1.60;99.90;;;;;;5016080;28;20069;-72
2022/12/24 05:31:18;;;;;;;23.05;9.85;;;1.60;99.90;;;;;;5015702;28;20022;-71
2022/12/24 05:33:44;;;;;;;23.25;10.88;;;1.60;99.90;;;;;;5017159;28;20053;-71
2022/12/24 05:36:09;;;;;;;24.35;10.98;;;1.70;99.90;;;;;;5017087;28;20065;-72
2022/12/24 05:38:35;;;;;;;22.40;10.80;;;1.70;99.90;;;;;;5016856;28;20029;-72
2022/12/24 05:41:01;;;;;;;24.10;11.45;;;1.70;99.90;;;;;;5017311;28;20034;-72
2022/12/24 05:43:26;;;;;;;22.05;12.48;;;1.70;99.90;;;;;;5017344;28;20018;-71
2022/12/24 05:46:01;;;;;;;20.95;11.43;;;1.70;99.90;;;;;;5017524;28;20022;-71
2022/12/24 05:48:27;;;;;;;26.80;11.57;;;1.70;99.90;;;;;;5016434;28;20037;-72
2022/12/24 05:50:53;;;;;;;25.13;12.27;;;1.70;99.90;;;;;;5017025;28;20108;-71
2022/12/24 05:53:19;;;;;;;23.83;11.30;;;1.80;99.90;;;;;;5016953;28;20387;-71
2022/12/24 05:55:45;;;;;;;24.75;10.65;;;1.80;99.90;;;;;;5017132;28;20033;-71
2022/12/24 05:58:11;;;;;;;40.33;12.43;;;1.80;99.90;;;;;;5016094;28;20026;-72
2022/12/24 06:00:36;;;;;;;24.30;11.85;;;1.80;99.90;;;;;;5016383;28;20062;-72
2022/12/24 06:03:02;;;;;;;26.25;12.23;;;1.80;99.90;;;;;;5016977;28;20026;-72
2022/12/24 06:05:28;;;;;;;28.35;10.13;;;1.80;99.90;;;;;;5016611;28;20540;-71
2022/12/24 06:07:54;;;;;;;34.92;11.82;;;1.80;99.90;;;;;;5016768;28;20389;-71
2022/12/24 06:10:19;;;;;;;27.17;11.55;;;1.80;99.90;;;;;;5016530;28;20076;-71
2022/12/24 06:12:45;;;;;;;27.52;11.93;;;1.90;99.90;;;;;;5016211;28;20436;-71
2022/12/24 06:15:10;;;;;;;30.10;12.25;;;1.90;99.90;;;;;;5016809;28;20034;-72
2022/12/24 06:17:36;;;;;;;35.03;11.98;;;1.90;99.90;;;;;;5016662;28;20053;-71
2022/12/24 06:20:02;;;;;;;33.08;14.13;;;1.90;99.90;;;;;;5016331;28;20034;-72
2022/12/24 06:22:28;;;;;;;30.45;12.73;;;1.90;99.90;;;;;;5016482;28;20060;-72
2022/12/24 06:24:53;;;;;;;25.38;12.88;;;1.90;99.90;;;;;;5016223;28;20366;-72
2022/12/24 06:27:19;;;;;;;29.58;12.93;;;2.00;99.90;;;;;;5016838;28;20025;-72
2022/12/24 06:29:44;;;;;;;30.13;13.55;;;2.00;99.90;;;;;;5016307;28;20425;-72
2022/12/24 06:32:10;;;;;;;27.60;13.07;;;2.00;99.90;;;;;;5016735;28;20030;-72
2022/12/24 06:34:35;;;;;;;32.47;14.48;;;2.00;99.90;;;;;;5016165;28;20026;-72
2022/12/24 06:37:01;;;;;;;29.92;12.73;;;2.00;99.90;;;;;;5014882;28;20033;-72
2022/12/24 06:39:27;;;;;;;27.30;12.82;;;2.00;99.90;;;;;;5016049;28;20053;-72
2022/12/24 06:41:52;;;;;;;37.30;13.32;;;2.00;99.90;;;;;;5016265;28;20029;-72
2022/12/24 06:44:18;;;;;;;30.30;15.27;;;2.00;99.90;;;;;;5015862;28;20073;-72
2022/12/24 06:46:43;;;;;;;24.70;13.13;;;2.00;99.90;;;;;;5016414;28;20022;-70
2022/12/24 06:49:09;;;;;;;30.33;12.93;;;2.10;99.90;;;;;;5016142;28;20025;-71
2022/12/24 06:51:34;;;;;;;32.95;13.98;;;2.10;99.90;;;;;;5016025;28;20030;-71
2022/12/24 06:54:00;;;;;;;34.95;13.52;;;2.10;99.90;;;;;;5015353;28;20030;-71
2022/12/24 06:56:25;;;;;;;39.58;14.68;;;2.10;99.90;;;;;;5016065;28;20030;-71
2022/12/24 06:58:51;;;;;;;22.45;13.38;;;2.10;99.90;;;;;;5015530;28;20081;-71
2022/12/24 07:01:18;;;;;;;34.78;14.35;;;2.10;99.90;;;;;;5015577;28;20596;-71
2022/12/24 07:03:44;;;;;;;29.08;14.02;;;2.10;99.90;;;;;;5015442;28;20034;-71
2022/12/24 07:06:24;;;;;;;34.33;13.32;;;2.10;99.90;;;;;;5015734;28;20026;-70
2022/12/24 07:08:49;;;;;;;29.25;13.20;;;2.10;99.90;;;;;;5015425;28;20022;-71
2022/12/24 07:11:16;;;;;;;26.83;13.77;;;2.10;99.90;;;;;;5015329;28;20026;-70
2022/12/24 07:13:41;;;;;;;31.75;15.55;;;2.10;99.90;;;;;;5015361;28;20036;-70
2022/12/24 07:16:07;;;;;;;35.42;13.85;;;2.20;99.90;;;;;;5015293;28;20432;-70
2022/12/24 07:18:33;;;;;;;26.50;12.90;;;2.20;99.90;;;;;;5015330;28;20034;-71
2022/12/24 07:20:58;;;;;;;27.85;13.05;;;2.20;99.90;;;;;;5015488;28;20034;-70
2022/12/24 07:23:24;;;;;;;28.45;13.68;;;2.20;99.90;;;;;;5015087;28;20032;-71
2022/12/24 07:25:50;;;;;;;28.98;14.27;;;2.20;99.90;;;;;;5015113;28;20496;-70
2022/12/24 07:28:16;;;;;;;35.78;15.43;;;2.20;99.90;;;;;;5015153;28;20037;-71
2022/12/24 07:30:41;;;;;;;25.67;13.70;;;2.20;99.90;;;;;;5014943;28;20041;-71
2022/12/24 07:33:07;;;;;;;31.65;15.15;;;2.10;99.90;;;;;;5015144;28;20030;-71
2022/12/24 07:35:32;;;;;;;32.80;13.98;;;2.10;99.90;;;;;;5014797;28;20048;-71
2022/12/24 07:37:58;;;;;;;34.60;15.23;;;2.10;99.90;;;;;;5014848;28;20038;-71
2022/12/24 07:40:23;;;;;;;31.55;13.55;;;2.10;99.90;;;;;;5014097;28;20053;-71
2022/12/24 07:42:49;;;;;;;25.05;14.07;;;2.10;99.90;;;;;;5014807;28;20069;-71
2022/12/24 07:45:15;;;;;;;26.02;14.57;;;2.10;99.90;;;;;;5014587;28;20030;-71
2022/12/24 07:47:40;;;;;;;21.55;12.68;;;2.10;99.90;;;;;;5014931;28;20029;-70
2022/12/24 07:50:06;;;;;;;29.73;13.48;;;2.10;99.90;;;;;;5014642;28;20021;-70
2022/12/24 07:52:32;;;;;;;25.00;13.57;;;2.10;99.90;;;;;;5014707;28;20100;-71
2022/12/24 07:54:57;;;;;;;28.17;13.10;;;2.20;99.90;;;;;;5014444;28;20092;-71
2022/12/24 07:57:23;;;;;;;26.90;13.20;;;2.20;99.90;;;;;;5013264;28;20029;-72
2022/12/24 07:59:48;;;;;;;31.00;13.70;;;2.20;99.90;;;;;;5014452;28;20030;-71
2022/12/24 08:02:14;;;;;;;35.50;15.82;;;2.30;99.90;;;;;;5014607;28;20362;-70
2022/12/24 08:04:40;;;;;;;34.67;13.93;;;2.30;99.90;;;;;;5014632;28;20456;-71
2022/12/24 08:07:06;;;;;;;37.25;15.27;;;2.30;99.90;;;;;;5014532;28;20479;-71
2022/12/24 08:09:33;;;;;;;26.70;13.60;;;2.40;99.90;;;;;;5014203;28;20080;-71
2022/12/24 08:11:58;;;;;;;29.35;13.18;;;2.30;99.90;;;;;;5014527;28;20382;-71
2022/12/24 08:14:24;;;;;;;35.85;13.70;;;2.40;99.90;;;;;;5014529;28;20018;-70
2022/12/24 08:16:49;;;;;;;24.60;14.57;;;2.40;99.90;;;;;;5014304;28;20536;-70
2022/12/24 08:19:15;;;;;;;36.05;14.43;;;2.50;99.90;;;;;;5014018;28;20071;-71
2022/12/24 08:21:41;;;;;;;31.08;13.98;;;2.50;99.90;;;;;;5014278;28;20565;-70
2022/12/24 08:24:06;;;;;;;28.23;13.45;;;2.50;99.90;;;;;;5014168;28;20034;-71
2022/12/24 08:26:33;;;;;;;28.75;14.13;;;2.50;99.90;;;;;;5014112;28;20022;-71
2022/12/24 08:28:58;;;;;;;35.22;15.25;;;2.60;99.90;;;;;;5014103;28;20042;-71
2022/12/24 08:31:24;;;;;;;37.50;14.75;;;2.60;99.90;;;;;;5014378;28;20022;-70
2022/12/24 08:33:49;;;;;;;23.50;14.65;;;2.60;99.90;;;;;;5014316;28;20470;-70
2022/12/24 08:36:15;;;;;;;38.75;16.00;;;2.60;99.90;;;;;;5014165;28;20129;-69
2022/12/24 08:38:40;;;;;;;33.35;15.20;;;2.70;99.90;;;;;;5013769;28;20030;-70
2022/12/24 08:41:06;;;;;;;29.02;14.98;;;2.70;99.90;;;;;;5013851;28;20060;-69
2022/12/24 08:43:31;;;;;;;27.98;15.68;;;2.70;99.90;;;;;;5013677;28;20076;-69
2022/12/24 08:46:02;;;;;;;34.53;16.17;;;2.80;99.90;;;;;;5014043;28;20034;-69
2022/12/24 08:48:27;;;;;;;28.77;14.98;;;2.80;99.90;;;;;;5013729;28;20022;-70
2022/12/24 08:50:53;;;;;;;32.35;16.30;;;2.80;99.90;;;;;;5014104;28;20029;-69
2022/12/24 08:53:19;;;;;;;29.70;16.13;;;2.80;99.90;;;;;;5018228;28;20405;-70
2022/12/24 08:55:44;;;;;;;32.45;15.63;;;2.90;99.90;;;;;;5017917;28;20486;-69
2022/12/24 08:58:10;;;;;;;37.50;16.60;;;2.90;99.90;;;;;;5017529;28;20193;-70
2022/12/24 09:00:35;;;;;;;36.63;15.43;;;3.00;99.90;;;;;;5017708;28;20104;-69
2022/12/24 09:03:01;;;;;;;29.45;15.85;;;3.00;99.90;;;;;;5017836;28;20112;-69
2022/12/24 09:05:27;;;;;;;38.10;15.68;;;3.10;99.90;;;;;;5017554;28;20030;-69
2022/12/24 09:07:53;;;;;;;38.33;14.52;;;3.10;99.90;;;;;;5017674;28;20033;-69
2022/12/24 09:10:19;;;;;;;50.45;17.42;;;3.20;99.90;;;;;;5017325;28;20022;-70
2022/12/24 09:12:45;;;;;;;27.90;15.18;;;3.20;99.90;;;;;;5017473;28;20037;-69
2022/12/24 09:15:10;;;;;;;29.13;15.40;;;3.20;99.90;;;;;;5017795;28;20025;-69
2022/12/24 09:17:36;;;;;;;31.55;15.23;;;3.20;99.90;;;;;;5017415;28;20033;-69
2022/12/24 09:20:03;;;;;;;28.33;13.68;;;3.30;99.90;;;;;;5017084;28;20140;-69
2022/12/24 09:22:29;;;;;;;31.95;15.48;;;3.30;99.90;;;;;;5018497;28;20034;-70
2022/12/24 09:24:54;;;;;;;30.60;14.70;;;3.30;99.90;;;;;;5017516;28;20033;-69
2022/12/24 09:27:20;;;;;;;32.58;15.63;;;3.30;99.90;;;;;;5017261;28;20018;-69
2022/12/24 09:29:46;;;;;;;33.03;14.60;;;3.30;99.90;;;;;;5017096;28;20098;-69
2022/12/24 09:32:11;;;;;;;43.20;16.13;;;3.30;99.90;;;;;;5017176;28;20026;-71
2022/12/24 09:34:37;;;;;;;28.60;14.00;;;3.30;99.90;;;;;;5016401;28;20061;-69
2022/12/24 09:37:03;;;;;;;29.65;14.52;;;3.30;99.90;;;;;;5017177;28;20033;-70
2022/12/24 09:39:28;;;;;;;26.65;14.60;;;3.40;99.90;;;;;;5017182;28;20037;-70
2022/12/24 09:42:08;;;;;;;43.78;14.85;;;3.40;99.90;;;;;;5017246;28;20076;-69
2022/12/24 09:44:59;;;;;;;33.78;14.73;;;3.40;99.90;;;;;;5016708;28;20037;-70
2022/12/24 09:47:52;;;;;;;27.42;13.43;;;3.40;99.90;;;;;;5017185;28;20109;-70
2022/12/24 09:50:42;;;;;;;33.92;15.27;;;3.40;99.90;;;;;;5016727;28;20022;-70
2022/12/24 09:53:38;;;;;;;34.42;15.38;;;3.50;99.90;;;;;;5017403;28;20018;-69
2022/12/24 09:56:14;;;;;;;35.80;14.20;;;3.50;99.90;;;;;;4995430;28;20038;-70
2022/12/24 09:58:46;;;;;;;29.35;12.68;;;3.50;99.90;;;;;;5016649;28;20026;-70
2022/12/24 10:01:19;;;;;;;33.60;13.27;;;3.50;99.90;;;;;;5016711;28;20033;-70
2022/12/24 10:03:45;;;;;;;36.97;14.10;;;3.50;99.90;;;;;;5016476;28;20492;-69
2022/12/24 10:06:23;;;;;;;35.28;12.65;;;3.50;99.90;;;;;;5016249;28;20133;-69
2022/12/24 10:09:10;;;;;;;28.60;12.45;;;3.60;99.90;;;;;;5016321;28;20093;-70
2022/12/24 10:11:51;;;;;;;24.30;11.43;;;3.60;99.90;;;;;;5016356;28;20385;-70
2022/12/24 10:14:40;;;;;;;23.60;11.70;;;3.60;99.90;;;;;;5016668;28;20041;-69
2022/12/24 10:17:43;;;;;;;28.45;12.00;;;3.70;99.90;;;;;;5016306;28;20030;-69
2022/12/24 10:20:26;;;;;;;29.95;11.50;;;3.70;99.90;;;;;;5016282;28;20041;-69
2022/12/24 10:23:06;;;;;;;28.67;12.13;;;3.70;99.90;;;;;;5016427;28;20117;-70
2022/12/24 10:25:51;;;;;;;25.17;10.52;;;3.80;99.90;;;;;;5016251;28;20393;-69
2022/12/24 10:28:55;;;;;;;18.10;11.02;;;3.80;99.90;;;;;;5016469;28;20028;-69
2022/12/24 10:31:38;;;;;;;20.58;11.27;;;3.90;99.90;;;;;;4955739;29;20130;-70
2022/12/24 10:34:12;;;;;;;19.80;9.20;;;3.90;99.90;;;;;;5012059;28;20084;-69
2022/12/24 10:36:37;;;;;;;27.98;10.60;;;3.90;99.90;;;;;;5016514;28;20034;-69
2022/12/24 10:39:03;;;;;;;26.17;11.50;;;3.90;99.90;;;;;;5014532;28;20068;-70
2022/12/24 10:41:30;;;;;;;21.33;10.88;;;4.00;99.90;;;;;;5015822;28;20030;-70
2022/12/24 10:43:56;;;;;;;22.45;10.48;;;4.00;99.90;;;;;;5016050;28;20033;-70
2022/12/24 10:46:38;;;;;;;22.90;9.25;;;4.00;99.90;;;;;;5015717;28;20060;-69
2022/12/24 10:49:06;;;;;;;33.05;10.75;;;4.00;99.90;;;;;;5015785;28;20105;-70
2022/12/24 10:51:56;;;;;;;24.35;10.90;;;3.90;99.90;;;;;;5016030;28;20018;-70
2022/12/24 10:54:25;;;;;;;25.80;11.32;;;3.90;99.90;;;;;;5015755;28;20363;-70
2022/12/24 10:56:58;;;;;;;22.70;11.05;;;3.90;99.90;;;;;;5015603;28;20034;-69
2022/12/24 10:59:29;;;;;;;19.92;10.38;;;3.90;99.90;;;;;;5015813;28;20030;-70
2022/12/24 11:01:57;;;;;;;23.60;10.00;;;4.00;99.90;;;;;;5015352;28;20481;-70
2022/12/24 11:04:25;;;;;;;22.58;10.63;;;4.00;99.90;;;;;;5015505;28;20026;-70
2022/12/24 11:07:05;;;;;;;19.40;9.88;;;4.10;99.90;;;;;;5015407;28;20602;-70
2022/12/24 11:09:40;;;;;;;21.42;10.18;;;4.10;99.90;;;;;;5015460;28;20564;-70
2022/12/24 11:12:17;;;;;;;23.40;9.52;;;4.10;99.90;;;;;;5015677;28;20044;-70
2022/12/24 11:14:43;;;;;;;23.40;10.45;;;4.10;99.90;;;;;;5014735;28;20052;-70
2022/12/24 11:17:21;;;;;;;19.92;9.90;;;4.10;99.90;;;;;;5015375;28;20481;-70
2022/12/24 11:19:48;;;;;;;27.05;10.48;;;4.10;99.90;;;;;;5015253;28;20034;-70
2022/12/24 11:22:26;;;;;;;23.00;10.30;;;4.10;99.90;;;;;;5015093;28;20049;-70
2022/12/24 11:25:17;;;;;;;23.20;10.98;;;4.10;99.90;;;;;;5015490;28;20095;-70
2022/12/24 11:27:48;;;;;;;24.27;11.88;;;4.10;99.90;;;;;;5015461;28;20432;-70
2022/12/24 11:30:13;;;;;;;17.70;8.90;;;4.00;99.90;;;;;;5015237;28;20083;-70
2022/12/24 11:32:40;;;;;;;20.45;10.00;;;4.10;99.90;;;;;;5014836;28;20026;-70
2022/12/24 11:35:17;;;;;;;22.73;9.55;;;4.10;99.90;;;;;;5014927;28;20022;-70
2022/12/24 11:37:42;;;;;;;17.80;10.13;;;4.10;99.90;;;;;;5014966;28;20025;-70
2022/12/24 11:40:20;;;;;;;22.02;10.90;;;4.20;99.90;;;;;;5014803;28;20030;-71
2022/12/24 11:42:47;;;;;;;25.80;10.50;;;4.20;99.90;;;;;;5014811;28;20079;-70
2022/12/24 11:45:26;;;;;;;23.65;10.68;;;4.10;99.90;;;;;;5014758;28;20544;-70
2022/12/24 11:47:53;;;;;;;22.40;9.82;;;4.10;99.90;;;;;;5014663;28;20540;-71
2022/12/24 11:50:38;;;;;;;20.88;9.30;;;4.10;99.90;;;;;;5014955;28;20409;-70
2022/12/24 11:53:21;;;;;;;21.08;10.05;;;4.20;99.90;;;;;;5013565;28;20156;-71
2022/12/24 11:55:48;;;;;;;24.55;11.13;;;4.20;99.90;;;;;;5014961;28;20061;-70
2022/12/24 11:58:47;;;;;;;24.52;10.57;;;4.20;99.90;;;;;;5015073;28;20033;-71
2022/12/24 12:01:16;;;;;;;24.27;10.75;;;4.20;99.90;;;;;;5014586;28;20025;-71
2022/12/24 12:03:47;;;;;;;17.13;10.82;;;4.20;99.90;;;;;;5013073;28;20109;-71
2022/12/24 12:06:48;;;;;;;25.55;10.60;;;4.20;99.90;;;;;;5015094;28;20022;-71
2022/12/24 12:09:23;;;;;;;21.25;9.77;;;4.20;99.90;;;;;;4986487;28;20030;-71
2022/12/24 12:12:14;;;;;;;20.90;10.90;;;4.20;99.90;;;;;;5014726;28;20026;-70
2022/12/24 12:14:54;;;;;;;23.00;11.73;;;4.30;99.90;;;;;;5005773;28;20065;-71
2022/12/24 12:17:51;;;;;;;23.63;12.88;;;4.30;99.90;;;;;;5014692;28;20409;-70
2022/12/24 12:20:34;;;;;;;20.88;10.60;;;4.30;99.90;;;;;;5001234;28;20474;-70
2022/12/24 12:23:11;;;;;;;20.70;11.35;;;4.30;99.90;;;;;;5014397;28;20026;-70
2022/12/24 12:26:04;;;;;;;21.48;11.38;;;4.40;99.90;;;;;;5014605;28;20022;-70
2022/12/24 12:28:47;;;;;;;23.98;10.65;;;4.30;99.90;;;;;;5014414;28;20022;-71
2022/12/24 12:31:27;;;;;;;28.48;11.40;;;4.40;99.90;;;;;;5014407;28;20022;-70
2022/12/24 12:34:16;;;;;;;19.52;11.10;;;4.30;99.90;;;;;;5013078;28;20069;-69
2022/12/24 12:36:48;;;;;;;20.02;11.25;;;4.30;99.90;;;;;;5014320;28;20045;-70
2022/12/24 12:39:14;;;;;;;23.23;11.88;;;4.30;99.90;;;;;;5014387;28;20492;-69
2022/12/24 12:41:47;;;;;;;26.80;11.18;;;4.20;99.90;;;;;;5014134;28;20053;-69
2022/12/24 12:44:18;;;;;;;;;;;4.20;99.90;;;;;;5014931;28;20030;-69
2022/12/24 12:47:07;;;;;;;28.00;11.18;;;4.20;99.90;;;;;;5014077;28;20365;-70
2022/12/24 12:49:32;;;;;;;19.77;10.30;;;4.20;99.90;;;;;;5013956;28;20026;-71
2022/12/24 12:52:04;;;;;;;21.85;10.93;;;4.20;99.90;;;;;;5013958;28;20026;-71
2022/12/24 12:54:34;;;;;;;25.75;10.77;;;4.20;99.90;;;;;;5014218;28;20064;-71
2022/12/24 12:57:09;;;;;;;32.78;11.98;;;4.20;99.90;;;;;;5014263;28;20029;-71
2022/12/24 12:59:46;;;;;;;19.67;9.93;;;4.20;99.90;;;;;;5014076;28;20103;-71